Аэропорт: Сыктывкар. Сыктывкар

ICAO: UUYY

METAR:
2019/01/21 23:00
UUYY 212300Z 26002MPS 9000 -SN BKN036 M20/M22 Q1002 R18/490245 NOSIG RMK QFE743/0991
METAR:
2019/01/21 21:24
TAF TAF UUYY 212000Z 2121/2221 27003MPS 3100 -SN BR FEW005 BKN011 
      TEMPO 2121/2209 0300 FZFG FEW002